Time;durP1;ratioP1;P1;durP2;ratioP2;P2;SDS_P1;SDS_P2;PMS_P1;PMS_P2;Temp;Humidity;BMP_temperature;BMP_pressure;BME280_temperature;BME280_humidity;BME280_pressure;Samples;Min_cycle;Max_cycle;Signal;HPM_P1;HPM_P2
2023/09/19 00:00:33;;;;;;;1.20;1.00;;;25.00;88.70;;;;;;6157485;23;20735;-87
2023/09/19 00:03:00;;;;;;;2.83;1.27;;;24.90;88.60;;;;;;6156949;23;20440;-87
2023/09/19 00:05:30;;;;;;;1.60;1.10;;;24.90;88.50;;;;;;6157295;23;20433;-86
2023/09/19 00:07:58;;;;;;;1.40;1.10;;;25.00;88.60;;;;;;6157279;23;20434;-87
2023/09/19 00:10:26;;;;;;;1.40;1.10;;;24.90;88.50;;;;;;6157457;23;20411;-87
2023/09/19 00:12:55;;;;;;;1.20;1.07;;;24.90;88.40;;;;;;6157357;23;20407;-87
2023/09/19 00:15:21;;;;;;;1.40;1.03;;;24.90;89.20;;;;;;6157299;23;20400;-87
2023/09/19 00:17:48;;;;;;;1.20;1.00;;;24.90;88.30;;;;;;6157275;23;20478;-87
2023/09/19 00:20:17;;;;;;;1.30;1.20;;;24.90;88.30;;;;;;6156974;23;20483;-86
2023/09/19 00:22:45;;;;;;;1.50;1.10;;;24.90;88.30;;;;;;6157353;23;20400;-87
2023/09/19 00:25:15;;;;;;;1.10;0.97;;;24.90;88.30;;;;;;6156873;23;20403;-87
2023/09/19 00:27:43;;;;;;;1.30;0.97;;;24.90;88.20;;;;;;6156468;23;20432;-87
2023/09/19 00:30:14;;;;;;;1.40;1.20;;;24.90;88.20;;;;;;6156868;23;20408;-87
2023/09/19 00:32:42;;;;;;;1.30;1.10;;;24.90;88.10;;;;;;6157250;23;20419;-87
2023/09/19 00:35:10;;;;;;;1.40;1.03;;;24.90;88.10;;;;;;6157147;23;20452;-87
2023/09/19 00:37:37;;;;;;;1.37;1.27;;;24.90;88.00;;;;;;6157018;23;20404;-86
2023/09/19 00:40:09;;;;;;;1.57;1.30;;;24.90;88.00;;;;;;6156817;23;20974;-87
2023/09/19 00:42:37;;;;;;;1.30;1.00;;;24.90;87.90;;;;;;6156843;23;20388;-87
2023/09/19 00:45:06;;;;;;;1.37;1.17;;;24.90;87.90;;;;;;6156565;23;20973;-87
2023/09/19 00:47:33;;;;;;;1.47;1.00;;;24.90;87.80;;;;;;6156529;23;20912;-87
2023/09/19 00:50:00;;;;;;;1.20;0.90;;;24.90;87.80;;;;;;6157025;23;20483;-86
2023/09/19 00:52:28;;;;;;;1.20;1.00;;;24.90;87.70;;;;;;6157022;23;20765;-87
2023/09/19 00:54:56;;;;;;;1.40;1.20;;;24.90;87.80;;;;;;6156577;23;20495;-87
2023/09/19 00:57:24;;;;;;;1.83;1.20;;;24.90;87.70;;;;;;6156882;23;20407;-87
2023/09/19 00:59:54;;;;;;;1.93;1.30;;;24.90;87.70;;;;;;6156933;23;20395;-87
2023/09/19 01:02:22;;;;;;;1.70;1.10;;;24.90;87.70;;;;;;6157000;23;20731;-87
2023/09/19 01:04:49;;;;;;;1.13;0.97;;;24.90;87.70;;;;;;6156340;23;20452;-86
2023/09/19 01:07:16;;;;;;;1.20;1.00;;;24.90;87.70;;;;;;6156439;23;20434;-87
2023/09/19 01:09:44;;;;;;;1.23;1.00;;;24.90;87.70;;;;;;6156817;23;20408;-87
2023/09/19 01:12:17;;;;;;;1.20;1.00;;;24.90;87.70;;;;;;6156758;23;20403;-87
2023/09/19 01:14:57;;;;;;;1.60;1.17;;;24.90;87.60;;;;;;6156917;23;20475;-86
2023/09/19 01:17:30;;;;;;;1.30;1.10;;;24.90;87.60;;;;;;6156714;23;20439;-87
2023/09/19 01:20:27;;;;;;;1.20;0.97;;;24.90;87.60;;;;;;6156788;23;20461;-86
2023/09/19 01:23:02;;;;;;;1.37;1.10;;;24.90;87.50;;;;;;6156746;23;20396;-86
2023/09/19 01:25:51;;;;;;;1.23;1.10;;;24.80;87.40;;;;;;6156699;23;20395;-87
2023/09/19 01:28:36;;;;;;;1.10;1.00;;;24.90;88.30;;;;;;6155937;23;20431;-87
2023/09/19 01:31:09;;;;;;;1.40;1.10;;;24.90;87.50;;;;;;6156336;23;20895;-87
2023/09/19 01:33:59;;;;;;;1.30;1.03;;;24.80;87.30;;;;;;6156270;23;20389;-86
2023/09/19 01:36:27;;;;;;;1.50;1.03;;;24.80;87.20;;;;;;6156071;23;20399;-86
2023/09/19 01:38:55;;;;;;;3.07;1.30;;;24.80;87.30;;;;;;6156567;23;20491;-86
2023/09/19 01:41:30;;;;;;;2.10;1.03;;;24.80;87.20;;;;;;6156569;23;20404;-87
2023/09/19 01:43:59;;;;;;;1.40;0.97;;;24.80;87.20;;;;;;6156472;23;20534;-87
2023/09/19 01:46:35;;;;;;;1.30;1.20;;;24.80;87.20;;;;;;6155894;23;20443;-87
2023/09/19 01:49:16;;;;;;;1.30;1.00;;;24.80;87.10;;;;;;6156150;23;20394;-87
2023/09/19 01:51:48;;;;;;;1.30;1.20;;;24.80;87.10;;;;;;6156546;23;20467;-86
2023/09/19 01:54:25;;;;;;;1.57;1.23;;;24.80;87.10;;;;;;6156582;23;20399;-86
2023/09/19 01:57:04;;;;;;;1.40;1.10;;;24.80;87.10;;;;;;6156496;23;20758;-87
2023/09/19 01:59:40;;;;;;;1.20;1.10;;;24.80;87.80;;;;;;6156407;23;20495;-87
2023/09/19 02:02:10;;;;;;;1.40;0.90;;;24.80;87.10;;;;;;6156464;23;20684;-87
2023/09/19 02:04:37;;;;;;;1.50;1.27;;;24.80;87.10;;;;;;6156288;23;20462;-87
2023/09/19 02:07:05;;;;;;;1.20;1.10;;;24.80;87.00;;;;;;6156108;23;20507;-86
2023/09/19 02:09:34;;;;;;;1.20;1.10;;;24.80;87.00;;;;;;6156281;23;20771;-86
2023/09/19 02:12:00;;;;;;;1.10;0.90;;;24.80;87.00;;;;;;6156233;23;20408;-87
2023/09/19 02:14:29;;;;;;;1.43;1.00;;;24.80;86.90;;;;;;6156441;23;20839;-87
2023/09/19 02:16:56;;;;;;;1.20;1.03;;;24.80;86.90;;;;;;6155953;23;20982;-87
2023/09/19 02:19:24;;;;;;;1.20;1.10;;;24.80;86.90;;;;;;6156011;23;20406;-87
2023/09/19 02:21:52;;;;;;;1.60;0.93;;;24.80;86.80;;;;;;6156284;23;20420;-87
2023/09/19 02:24:19;;;;;;;2.33;1.07;;;24.80;86.80;;;;;;6155706;23;20435;-87
2023/09/19 02:26:46;;;;;;;1.40;1.10;;;24.80;86.80;;;;;;6156316;23;21060;-87
2023/09/19 02:29:13;;;;;;;1.60;1.30;;;24.80;86.70;;;;;;6155576;23;20428;-86
2023/09/19 02:31:40;;;;;;;2.00;1.20;;;24.80;86.70;;;;;;6156278;23;20427;-87
2023/09/19 02:34:09;;;;;;;1.33;0.90;;;24.80;86.70;;;;;;6155792;23;20420;-86
2023/09/19 02:36:37;;;;;;;1.40;1.03;;;24.80;86.70;;;;;;6156218;23;20400;-87
2023/09/19 02:39:06;;;;;;;1.30;0.97;;;24.80;86.60;;;;;;6156192;23;20690;-87
2023/09/19 02:41:33;;;;;;;1.40;1.07;;;24.80;86.60;;;;;;6155715;23;20432;-87
2023/09/19 02:44:01;;;;;;;1.90;1.20;;;24.80;86.60;;;;;;6155548;23;20470;-86
2023/09/19 02:46:29;;;;;;;2.33;1.10;;;24.80;86.50;;;;;;6156091;23;20405;-87
2023/09/19 02:48:56;;;;;;;1.70;1.50;;;24.70;86.40;;;;;;6156146;23;20395;-86
2023/09/19 02:51:23;;;;;;;1.37;1.10;;;24.70;86.30;;;;;;6156111;23;20400;-86
2023/09/19 02:53:52;;;;;;;1.30;1.10;;;24.80;86.40;;;;;;6155688;23;20453;-87
2023/09/19 02:56:19;;;;;;;1.43;0.90;;;24.70;86.30;;;;;;6156044;23;20435;-87
2023/09/19 02:58:48;;;;;;;2.43;1.40;;;24.70;86.40;;;;;;6155590;23;20400;-86
2023/09/19 03:01:15;;;;;;;2.07;1.23;;;24.70;86.20;;;;;;6155618;23;20439;-87
2023/09/19 03:03:42;;;;;;;1.80;1.20;;;24.70;86.30;;;;;;6155868;23;20731;-87
2023/09/19 03:06:09;;;;;;;2.40;1.33;;;24.70;86.30;;;;;;6156025;23;20400;-87
2023/09/19 03:08:39;;;;;;;2.53;1.20;;;24.70;86.10;;;;;;6155948;23;20435;-86
2023/09/19 03:11:11;;;;;;;1.37;1.10;;;24.70;86.20;;;;;;6155526;23;20404;-86
2023/09/19 03:13:39;;;;;;;1.80;1.13;;;24.70;86.30;;;;;;6156080;23;20759;-86
2023/09/19 03:16:06;;;;;;;1.40;1.20;;;24.70;86.10;;;;;;6155620;23;20482;-86
2023/09/19 03:18:35;;;;;;;1.70;1.30;;;24.70;86.10;;;;;;6155943;23;20796;-86
2023/09/19 03:21:03;;;;;;;2.47;0.90;;;24.70;86.10;;;;;;6156002;23;20763;-87
2023/09/19 03:23:30;;;;;;;1.20;1.10;;;24.70;86.10;;;;;;6155607;23;20439;-86
2023/09/19 03:25:58;;;;;;;1.30;1.17;;;24.70;86.00;;;;;;6155958;23;20455;-86
2023/09/19 03:28:27;;;;;;;1.50;1.23;;;24.70;86.10;;;;;;6155502;23;20442;-86
2023/09/19 03:31:01;;;;;;;1.40;1.20;;;24.70;86.00;;;;;;6157180;23;20403;-86
2023/09/19 03:33:28;;;;;;;2.37;1.17;;;24.70;86.00;;;;;;6157758;23;20716;-87
2023/09/19 03:35:58;;;;;;;1.10;0.90;;;24.70;86.00;;;;;;6157246;23;20423;-86
2023/09/19 03:38:25;;;;;;;1.70;1.40;;;24.70;86.00;;;;;;6157588;23;20400;-86
2023/09/19 03:40:52;;;;;;;1.30;1.07;;;24.70;86.00;;;;;;6157293;23;20399;-86
2023/09/19 03:43:19;;;;;;;1.70;1.20;;;24.70;85.90;;;;;;6157567;23;20486;-87
2023/09/19 03:45:48;;;;;;;1.17;0.90;;;24.70;85.70;;;;;;6157301;23;20763;-86
2023/09/19 03:48:15;;;;;;;2.33;1.07;;;24.70;85.90;;;;;;6157534;23;20779;-86
2023/09/19 03:50:43;;;;;;;1.57;1.20;;;24.70;85.80;;;;;;6157226;23;20885;-86
2023/09/19 03:53:11;;;;;;;1.30;1.03;;;24.70;85.70;;;;;;6157262;23;20442;-87
2023/09/19 03:55:38;;;;;;;1.30;1.10;;;24.70;85.60;;;;;;6157245;23;20412;-86
2023/09/19 03:58:05;;;;;;;1.43;1.00;;;24.70;85.60;;;;;;6157520;23;20490;-86
2023/09/19 04:00:32;;;;;;;1.20;0.90;;;24.70;85.60;;;;;;6157546;23;20431;-87
2023/09/19 04:03:05;;;;;;;1.97;1.00;;;24.70;85.70;;;;;;6157578;23;20479;-86
2023/09/19 04:05:32;;;;;;;2.13;0.90;;;24.70;85.60;;;;;;6156856;23;20447;-86
2023/09/19 04:07:59;;;;;;;1.70;1.20;;;24.70;85.50;;;;;;6156929;23;20483;-86
2023/09/19 04:10:25;;;;;;;1.40;1.17;;;24.70;85.60;;;;;;6157507;23;20487;-86
2023/09/19 04:12:53;;;;;;;1.40;1.00;;;24.70;85.60;;;;;;6157022;23;20443;-87
2023/09/19 04:15:22;;;;;;;1.70;1.23;;;24.70;85.50;;;;;;6157380;23;20408;-86
2023/09/19 04:17:49;;;;;;;1.40;1.23;;;24.70;85.40;;;;;;6157378;23;20498;-86
2023/09/19 04:20:19;;;;;;;1.30;0.90;;;24.70;85.60;;;;;;6157331;23;20408;-86
2023/09/19 04:22:46;;;;;;;1.73;1.20;;;24.70;85.50;;;;;;6157410;23;20393;-86
2023/09/19 04:25:13;;;;;;;1.33;1.00;;;24.70;85.40;;;;;;6156628;23;20542;-87
2023/09/19 04:27:41;;;;;;;1.50;1.30;;;24.60;85.30;;;;;;6156919;23;20459;-87
2023/09/19 04:30:11;;;;;;;1.70;1.23;;;24.60;85.20;;;;;;6156849;23;20404;-86
2023/09/19 04:32:40;;;;;;;1.10;0.90;;;24.60;85.20;;;;;;6157260;23;20472;-87
2023/09/19 04:35:08;;;;;;;1.20;1.00;;;24.60;85.20;;;;;;6157097;23;20714;-86
2023/09/19 04:37:39;;;;;;;1.40;0.90;;;24.60;85.20;;;;;;6157035;23;20781;-86
2023/09/19 04:40:12;;;;;;;1.63;1.10;;;24.60;85.20;;;;;;6157179;23;20700;-86
2023/09/19 04:42:39;;;;;;;1.10;1.00;;;24.60;85.10;;;;;;6156849;23;20750;-87
2023/09/19 04:45:09;;;;;;;1.43;1.10;;;24.60;85.10;;;;;;6156866;23;20614;-87
2023/09/19 04:47:38;;;;;;;1.13;1.03;;;24.60;85.00;;;;;;6156896;23;20474;-86
2023/09/19 04:50:11;;;;;;;1.37;1.13;;;24.60;85.00;;;;;;6156673;23;20435;-86
2023/09/19 04:52:44;;;;;;;2.00;1.40;;;24.60;85.00;;;;;;6156643;23;20396;-87
2023/09/19 04:55:13;;;;;;;2.63;1.00;;;24.60;85.00;;;;;;6156623;23;20395;-86
2023/09/19 04:57:40;;;;;;;1.40;1.07;;;24.60;84.90;;;;;;6156998;23;20408;-86
2023/09/19 05:00:12;;;;;;;1.30;1.10;;;24.60;85.90;;;;;;6156583;23;20430;-86
2023/09/19 05:02:40;;;;;;;1.90;1.23;;;24.60;84.90;;;;;;6156598;23;20395;-86
2023/09/19 05:05:08;;;;;;;1.20;1.03;;;24.60;85.20;;;;;;6156193;23;20947;-86
2023/09/19 05:07:35;;;;;;;1.40;1.10;;;24.60;85.00;;;;;;6156458;23;20487;-87
2023/09/19 05:10:07;;;;;;;1.97;1.00;;;24.60;84.90;;;;;;6156845;23;20399;-86
2023/09/19 05:12:35;;;;;;;1.30;1.10;;;24.60;84.80;;;;;;6156814;23;20389;-87
2023/09/19 05:15:03;;;;;;;1.20;1.00;;;24.60;85.00;;;;;;6156786;23;20405;-86
2023/09/19 05:17:30;;;;;;;1.77;0.97;;;24.60;84.90;;;;;;6156718;23;20410;-86
2023/09/19 05:19:56;;;;;;;1.10;1.00;;;24.60;85.00;;;;;;6156828;23;20431;-87
2023/09/19 05:22:24;;;;;;;1.40;1.10;;;24.60;85.00;;;;;;6156259;23;20442;-86
2023/09/19 05:24:52;;;;;;;1.70;1.10;;;24.60;85.10;;;;;;6156401;23;20490;-86
2023/09/19 05:27:21;;;;;;;1.67;1.30;;;24.60;85.10;;;;;;6155966;23;20436;-87
2023/09/19 05:29:48;;;;;;;1.43;0.97;;;24.60;85.10;;;;;;6156772;23;20404;-86
2023/09/19 05:32:15;;;;;;;1.40;1.13;;;24.50;84.80;;;;;;6156684;23;20464;-87
2023/09/19 05:34:42;;;;;;;1.50;1.00;;;24.60;84.90;;;;;;6156073;23;20432;-87
2023/09/19 05:37:09;;;;;;;1.73;1.40;;;24.50;84.90;;;;;;6156580;23;20483;-87
2023/09/19 05:39:37;;;;;;;1.83;1.13;;;24.50;84.90;;;;;;6156558;23;20431;-86
2023/09/19 05:42:04;;;;;;;1.90;1.03;;;24.50;85.00;;;;;;6156610;23;20757;-87
2023/09/19 05:44:33;;;;;;;1.80;1.40;;;24.60;84.90;;;;;;6155930;23;20435;-86
2023/09/19 05:46:59;;;;;;;5.17;1.33;;;24.60;84.90;;;;;;6156486;23;20462;-86
2023/09/19 05:49:27;;;;;;;2.70;1.20;;;24.60;85.00;;;;;;6156261;23;20487;-87
2023/09/19 05:51:56;;;;;;;1.93;1.30;;;24.50;84.70;;;;;;6156448;23;20396;-86
2023/09/19 05:54:23;;;;;;;1.60;1.10;;;24.50;84.80;;;;;;6155948;23;20399;-87
2023/09/19 05:56:53;;;;;;;1.30;1.10;;;24.50;84.90;;;;;;6156343;23;20775;-86
2023/09/19 05:59:19;;;;;;;1.50;1.20;;;24.50;85.60;;;;;;6156528;23;20407;-87
2023/09/19 06:01:48;;;;;;;1.67;1.33;;;24.50;84.80;;;;;;6156451;23;20395;-87
2023/09/19 06:04:14;;;;;;;2.07;1.30;;;24.50;84.80;;;;;;6155935;23;20502;-86
2023/09/19 06:06:42;;;;;;;1.60;1.00;;;24.50;84.70;;;;;;6156104;23;20533;-87
2023/09/19 06:09:09;;;;;;;1.53;1.33;;;24.50;84.80;;;;;;6156211;23;20469;-87
2023/09/19 06:11:36;;;;;;;1.30;1.03;;;24.50;84.70;;;;;;6156344;23;20400;-87
2023/09/19 06:14:03;;;;;;;1.70;1.10;;;24.50;84.80;;;;;;6155930;23;20495;-87
2023/09/19 06:16:32;;;;;;;1.60;1.00;;;24.50;84.70;;;;;;6156239;23;20438;-87
2023/09/19 06:19:00;;;;;;;1.57;1.13;;;24.50;84.70;;;;;;6156240;23;20796;-87
2023/09/19 06:21:28;;;;;;;1.57;1.00;;;24.50;84.70;;;;;;6156269;23;20396;-87
2023/09/19 06:23:55;;;;;;;1.10;1.00;;;24.50;84.60;;;;;;6155726;23;20934;-87
2023/09/19 06:26:23;;;;;;;1.23;1.00;;;24.50;84.70;;;;;;6155560;23;21013;-87
2023/09/19 06:28:50;;;;;;;1.60;1.30;;;24.50;84.70;;;;;;6155561;23;21034;-87
2023/09/19 06:31:16;;;;;;;2.90;1.40;;;24.50;85.60;;;;;;6156200;23;20491;-87
2023/09/19 06:33:43;;;;;;;1.20;1.00;;;24.50;84.70;;;;;;6156174;23;20399;-87
2023/09/19 06:36:11;;;;;;;1.20;0.90;;;24.50;84.70;;;;;;6156196;23;20487;-87
2023/09/19 06:38:39;;;;;;;1.10;0.90;;;24.50;84.70;;;;;;6155997;23;20404;-87
2023/09/19 06:41:07;;;;;;;2.50;1.23;;;24.50;84.60;;;;;;6156129;23;20404;-87
2023/09/19 06:43:34;;;;;;;1.50;1.13;;;24.50;84.60;;;;;;6155957;23;20404;-87
2023/09/19 06:46:01;;;;;;;1.90;1.47;;;24.50;84.70;;;;;;6156386;23;20447;-87
2023/09/19 06:48:30;;;;;;;1.90;0.97;;;24.50;84.50;;;;;;6156082;23;20888;-87
2023/09/19 06:50:58;;;;;;;1.20;1.07;;;24.50;84.60;;;;;;6155687;23;20400;-87
2023/09/19 06:53:26;;;;;;;1.50;1.30;;;24.50;84.60;;;;;;6156042;23;20406;-87
2023/09/19 06:55:54;;;;;;;3.40;1.80;;;24.50;84.60;;;;;;6155972;23;20471;-87
2023/09/19 06:58:21;;;;;;;1.20;1.00;;;24.50;84.60;;;;;;6156023;23;20400;-87
2023/09/19 07:00:49;;;;;;;1.83;1.10;;;24.50;84.60;;;;;;6156095;23;20427;-87
2023/09/19 07:03:20;;;;;;;2.03;1.07;;;24.50;84.50;;;;;;6156069;23;20757;-87
2023/09/19 07:05:49;;;;;;;1.33;1.10;;;24.50;84.40;;;;;;6156611;23;20526;-87
2023/09/19 07:08:15;;;;;;;1.60;1.10;;;24.50;84.50;;;;;;6157861;23;20450;-87
2023/09/19 07:10:48;;;;;;;1.60;1.20;;;24.50;84.50;;;;;;6157913;23;20502;-87
2023/09/19 07:13:17;;;;;;;1.63;1.20;;;24.60;84.50;;;;;;6157950;23;20388;-87
2023/09/19 07:15:46;;;;;;;1.10;1.00;;;24.60;84.50;;;;;;6157894;23;20408;-87
2023/09/19 07:18:14;;;;;;;2.40;1.40;;;24.60;84.50;;;;;;6157458;23;20415;-87
2023/09/19 07:20:45;;;;;;;1.40;1.00;;;24.60;84.40;;;;;;6157888;23;20422;-87
2023/09/19 07:23:13;;;;;;;1.93;1.20;;;24.60;84.20;;;;;;6157852;23;20392;-87
2023/09/19 07:25:40;;;;;;;2.67;1.30;;;24.60;84.40;;;;;;6157207;23;20447;-87
2023/09/19 07:28:08;;;;;;;1.30;1.10;;;24.60;84.30;;;;;;6157345;23;20527;-87
2023/09/19 07:30:38;;;;;;;1.87;1.10;;;24.60;85.20;;;;;;6157760;23;20764;-87
2023/09/19 07:33:06;;;;;;;1.97;1.40;;;24.60;84.40;;;;;;6157522;23;20392;-87
2023/09/19 07:35:33;;;;;;;2.37;1.17;;;24.60;84.30;;;;;;6157607;23;20426;-87
2023/09/19 07:38:01;;;;;;;1.53;1.30;;;24.60;84.40;;;;;;6157434;23;21079;-87
2023/09/19 07:40:28;;;;;;;1.40;1.10;;;24.60;84.20;;;;;;6157253;23;20404;-87
2023/09/19 07:42:56;;;;;;;1.33;1.13;;;24.60;84.30;;;;;;6157277;23;20490;-87
2023/09/19 07:45:25;;;;;;;1.47;0.93;;;24.60;84.40;;;;;;6157420;23;20498;-87
2023/09/19 07:47:52;;;;;;;1.73;1.10;;;24.60;84.40;;;;;;6157633;23;20455;-87
2023/09/19 07:50:20;;;;;;;2.40;1.20;;;24.60;84.30;;;;;;6158040;23;20483;-87
2023/09/19 07:52:47;;;;;;;2.40;1.43;;;24.70;84.40;;;;;;6157197;23;20396;-87
2023/09/19 07:55:16;;;;;;;1.60;1.20;;;24.70;84.40;;;;;;6157584;23;20490;-87
2023/09/19 07:57:43;;;;;;;1.90;1.33;;;24.70;84.50;;;;;;6156947;23;20415;-87
2023/09/19 08:00:11;;;;;;;1.50;1.33;;;24.70;84.40;;;;;;6157532;23;20422;-86
2023/09/19 08:02:41;;;;;;;1.13;1.03;;;24.70;84.40;;;;;;6157495;23;20400;-87
2023/09/19 08:05:09;;;;;;;2.30;1.20;;;24.70;85.30;;;;;;6157427;23;20747;-87
2023/09/19 08:07:37;;;;;;;1.63;1.10;;;24.70;84.50;;;;;;6157406;23;20404;-87
2023/09/19 08:10:04;;;;;;;2.60;1.30;;;24.70;84.70;;;;;;6157459;23;20402;-87
2023/09/19 08:12:32;;;;;;;1.43;1.33;;;24.80;84.90;;;;;;6157320;23;20450;-87
2023/09/19 08:14:59;;;;;;;1.50;0.90;;;24.80;84.90;;;;;;6157311;23;20400;-87
2023/09/19 08:17:26;;;;;;;1.23;1.00;;;24.80;85.10;;;;;;6156387;23;20431;-87
2023/09/19 08:19:54;;;;;;;2.70;1.40;;;24.80;85.10;;;;;;6157012;23;20887;-87
2023/09/19 08:22:21;;;;;;;1.60;1.13;;;24.80;85.20;;;;;;6157287;23;20709;-87
2023/09/19 08:24:48;;;;;;;1.37;1.10;;;24.80;85.30;;;;;;6157170;23;20755;-87
2023/09/19 08:27:18;;;;;;;1.73;1.17;;;24.80;85.30;;;;;;6156407;23;20483;-87
2023/09/19 08:29:46;;;;;;;1.53;1.00;;;24.80;85.40;;;;;;6157274;23;20758;-87
2023/09/19 08:32:13;;;;;;;1.10;1.00;;;24.80;85.30;;;;;;6157091;23;20491;-87
2023/09/19 08:34:39;;;;;;;1.90;1.20;;;24.80;85.40;;;;;;6156701;23;21018;-87
2023/09/19 08:37:08;;;;;;;1.70;1.20;;;24.80;85.60;;;;;;6157142;23;20459;-87
2023/09/19 08:39:36;;;;;;;1.60;1.10;;;24.80;85.70;;;;;;6157186;23;20951;-87
2023/09/19 08:42:04;;;;;;;1.33;1.10;;;24.80;85.60;;;;;;6156767;23;20462;-87
2023/09/19 08:44:31;;;;;;;1.50;1.10;;;24.90;85.80;;;;;;6156987;23;20470;-87
2023/09/19 08:47:09;;;;;;;1.67;1.00;;;24.80;85.70;;;;;;6156470;23;20439;-87
2023/09/19 08:49:44;;;;;;;4.70;1.20;;;24.90;85.70;;;;;;6156719;23;20474;-87
2023/09/19 08:52:20;;;;;;;1.40;1.30;;;24.90;85.80;;;;;;6157168;23;20778;-87
2023/09/19 08:54:52;;;;;;;1.30;0.90;;;24.90;85.90;;;;;;6156963;23;20423;-87
2023/09/19 08:57:22;;;;;;;2.13;1.27;;;24.90;85.90;;;;;;6156577;23;20876;-87
2023/09/19 08:59:49;;;;;;;1.57;0.90;;;24.90;85.80;;;;;;6156993;23;20404;-87
2023/09/19 09:02:18;;;;;;;2.57;1.30;;;24.90;85.80;;;;;;6156957;23;20407;-87
2023/09/19 09:04:46;;;;;;;1.30;1.10;;;25.00;85.90;;;;;;6156287;23;20462;-87
2023/09/19 09:07:16;;;;;;;1.67;1.50;;;25.00;86.70;;;;;;6156349;23;20475;-87
2023/09/19 09:09:44;;;;;;;1.30;1.10;;;25.00;85.90;;;;;;6156511;23;20388;-87
2023/09/19 09:12:13;;;;;;;1.63;1.23;;;25.00;85.90;;;;;;6156861;23;20404;-87
2023/09/19 09:14:41;;;;;;;1.60;1.10;;;25.00;85.90;;;;;;6156456;23;20738;-87
2023/09/19 09:17:08;;;;;;;3.20;1.40;;;25.00;85.90;;;;;;6156310;23;20986;-87
2023/09/19 09:19:35;;;;;;;1.30;1.00;;;25.00;86.80;;;;;;6156777;23;20423;-87
2023/09/19 09:22:08;;;;;;;1.70;1.10;;;25.00;86.00;;;;;;6156221;23;20395;-87
2023/09/19 09:24:39;;;;;;;1.67;1.10;;;25.00;86.00;;;;;;6156218;23;20402;-87
2023/09/19 09:27:08;;;;;;;1.30;1.10;;;25.00;86.00;;;;;;6156253;23;20439;-87
2023/09/19 09:29:43;;;;;;;1.50;1.07;;;25.10;86.10;;;;;;6156638;23;20388;-87
2023/09/19 09:32:24;;;;;;;1.67;1.30;;;25.10;86.10;;;;;;6156672;23;20403;-87
2023/09/19 09:34:54;;;;;;;1.47;0.90;;;25.10;86.10;;;;;;6156594;23;20426;-87
2023/09/19 09:37:22;;;;;;;1.10;1.00;;;25.10;86.10;;;;;;6156948;23;20774;-87
2023/09/19 09:39:56;;;;;;;1.50;1.23;;;25.10;86.10;;;;;;6156613;23;20962;-87
2023/09/19 09:42:35;;;;;;;1.30;1.07;;;25.20;86.10;;;;;;6156547;23;20470;-87
2023/09/19 09:45:28;;;;;;;1.50;1.30;;;25.20;86.10;;;;;;6156403;23;20455;-87
2023/09/19 09:47:55;;;;;;;1.60;1.20;;;25.20;86.20;;;;;;6156375;23;20738;-87
2023/09/19 09:50:38;;;;;;;1.50;1.00;;;25.20;86.20;;;;;;6156528;23;20408;-87
2023/09/19 09:53:07;;;;;;;1.50;1.03;;;25.20;86.20;;;;;;6156472;23;20392;-87
2023/09/19 09:56:00;;;;;;;1.30;1.00;;;25.20;86.10;;;;;;6156115;23;20947;-87
2023/09/19 09:58:29;;;;;;;1.73;1.10;;;25.20;86.10;;;;;;6156477;23;20781;-87
2023/09/19 10:00:57;;;;;;;2.07;0.97;;;25.20;86.10;;;;;;6156332;23;20410;-87
2023/09/19 10:03:33;;;;;;;2.43;1.60;;;25.30;86.10;;;;;;6155923;23;20404;-87
2023/09/19 10:06:02;;;;;;;1.10;0.90;;;25.30;86.30;;;;;;6156266;23;20420;-87
2023/09/19 10:08:31;;;;;;;1.60;0.87;;;25.40;86.10;;;;;;6156289;23;20475;-87
2023/09/19 10:11:05;;;;;;;1.83;1.03;;;25.40;86.10;;;;;;6156221;23;20492;-87
2023/09/19 10:13:36;;;;;;;1.93;1.30;;;25.40;86.10;;;;;;6156008;23;20423;-87
2023/09/19 10:16:10;;;;;;;1.50;1.23;;;25.40;86.10;;;;;;6155891;23;20392;-88
2023/09/19 10:18:39;;;;;;;2.23;1.27;;;25.40;86.10;;;;;;6156295;23;20389;-87
2023/09/19 10:21:08;;;;;;;2.17;1.03;;;25.50;86.20;;;;;;6156229;23;20494;-88
2023/09/19 10:23:37;;;;;;;1.10;1.00;;;25.50;86.10;;;;;;6156128;23;20715;-88
2023/09/19 10:26:08;;;;;;;2.10;1.07;;;25.50;86.00;;;;;;6155681;23;20494;-87
2023/09/19 10:28:38;;;;;;;2.37;1.10;;;25.50;86.00;;;;;;6155719;23;20428;-87
2023/09/19 10:31:09;;;;;;;1.77;0.93;;;25.50;86.00;;;;;;6156184;23;20400;-88
2023/09/19 10:33:38;;;;;;;1.40;1.10;;;25.50;86.10;;;;;;6155815;23;20918;-87
2023/09/19 10:36:06;;;;;;;1.77;1.07;;;25.60;86.20;;;;;;6155634;23;20400;-87
2023/09/19 10:38:36;;;;;;;1.20;1.00;;;25.60;86.10;;;;;;6156054;23;20411;-87
2023/09/19 10:41:03;;;;;;;1.67;1.03;;;25.60;86.10;;;;;;6159161;23;20399;-87
2023/09/19 10:43:33;;;;;;;2.47;1.10;;;25.60;86.10;;;;;;6159479;23;20491;-87
2023/09/19 10:46:03;;;;;;;1.40;1.07;;;25.60;86.10;;;;;;6159409;23;20478;-87
2023/09/19 10:48:31;;;;;;;1.63;1.00;;;25.60;86.10;;;;;;6159431;23;20719;-88
2023/09/19 10:51:04;;;;;;;1.30;1.20;;;25.60;86.10;;;;;;6159017;23;20404;-88
2023/09/19 10:53:44;;;;;;;2.47;1.07;;;25.60;86.20;;;;;;6159021;23;20470;-87
2023/09/19 10:56:17;;;;;;;1.40;1.07;;;25.60;86.20;;;;;;6159411;23;20479;-87
2023/09/19 10:58:45;;;;;;;1.90;1.27;;;25.60;86.30;;;;;;6159440;23;20388;-88
2023/09/19 11:01:14;;;;;;;1.40;1.10;;;25.60;86.20;;;;;;6159011;23;20899;-88
2023/09/19 11:03:44;;;;;;;1.87;1.10;;;25.70;86.30;;;;;;6159152;23;20408;-88
2023/09/19 11:06:16;;;;;;;2.47;1.20;;;25.70;86.20;;;;;;6159129;23;20400;-88
2023/09/19 11:09:23;;;;;;;1.40;0.90;;;25.80;86.40;;;;;;6159327;23;20422;-88
2023/09/19 11:11:55;;;;;;;1.17;0.90;;;25.80;86.20;;;;;;6100060;23;20414;-88
2023/09/19 11:14:38;;;;;;;1.43;1.13;;;25.80;87.10;;;;;;6159313;23;20474;-88
2023/09/19 11:17:46;;;;;;;1.50;1.17;;;25.90;86.30;;;;;;6158802;23;20403;-88
2023/09/19 11:23:22;;;;;;;1.30;1.20;;;26.00;86.40;;;;;;6156729;23;20764;-88
2023/09/19 11:25:51;;;;;;;1.30;1.00;;;26.00;86.40;;;;;;6158836;23;20871;-88
2023/09/19 11:28:32;;;;;;;1.40;1.13;;;26.00;86.30;;;;;;6158585;23;20823;-88
2023/09/19 11:31:55;;;;;;;1.53;1.17;;;26.00;86.20;;;;;;6158864;23;20437;-88
2023/09/19 11:34:45;;;;;;;1.20;0.90;;;26.00;86.20;;;;;;6158734;23;20423;-88
2023/09/19 11:38:15;;;;;;;1.50;0.93;;;26.00;86.10;;;;;;6159194;23;20423;-88
2023/09/19 11:40:49;;;;;;;1.67;1.20;;;26.10;86.20;;;;;;6158791;23;20782;-88
2023/09/19 11:43:35;;;;;;;1.97;1.13;;;26.10;86.20;;;;;;6159220;23;20396;-88
2023/09/19 11:46:07;;;;;;;1.30;1.20;;;26.10;86.20;;;;;;6159249;23;20487;-88
2023/09/19 11:48:37;;;;;;;1.60;1.23;;;26.10;86.10;;;;;;6159041;23;20485;-88
2023/09/19 11:51:23;;;;;;;1.60;1.07;;;26.10;86.10;;;;;;6158650;23;20451;-88
2023/09/19 11:53:51;;;;;;;3.50;1.10;;;26.10;86.00;;;;;;6157610;23;20492;-88
2023/09/19 11:56:20;;;;;;;1.53;1.00;;;26.10;86.10;;;;;;6157073;23;20482;-88
2023/09/19 11:58:48;;;;;;;2.07;1.37;;;26.10;86.10;;;;;;6157141;23;20458;-88
2023/09/19 12:01:24;;;;;;;2.37;1.30;;;26.10;86.10;;;;;;6157090;23;20404;-87
2023/09/19 12:03:56;;;;;;;1.30;1.10;;;26.10;86.10;;;;;;6157323;23;20543;-88
2023/09/19 12:06:24;;;;;;;2.40;1.50;;;26.10;86.00;;;;;;6157362;23;20477;-88
2023/09/19 12:08:53;;;;;;;1.30;1.00;;;26.10;86.10;;;;;;6157404;23;20491;-88
2023/09/19 12:11:24;;;;;;;1.20;1.00;;;26.10;86.10;;;;;;6157370;23;20404;-88
2023/09/19 12:13:52;;;;;;;1.50;0.80;;;26.10;87.00;;;;;;6157358;23;20400;-88
2023/09/19 12:16:24;;;;;;;1.50;1.10;;;26.10;86.20;;;;;;6157309;23;20478;-88
2023/09/19 12:18:53;;;;;;;1.20;1.00;;;26.10;86.20;;;;;;6157479;23;20426;-88
2023/09/19 12:21:31;;;;;;;1.57;1.10;;;26.10;86.30;;;;;;6156994;23;20776;-88
2023/09/19 12:24:05;;;;;;;1.63;1.20;;;26.10;86.30;;;;;;6157178;23;20388;-88
2023/09/19 12:26:41;;;;;;;1.83;1.00;;;26.10;86.40;;;;;;6156918;23;20438;-88
2023/09/19 12:29:14;;;;;;;1.73;1.20;;;26.10;86.30;;;;;;6156624;23;20431;-87
2023/09/19 12:31:55;;;;;;;2.07;1.30;;;26.10;86.30;;;;;;6156943;23;20392;-88
2023/09/19 12:34:26;;;;;;;1.30;1.00;;;26.20;87.20;;;;;;6157198;23;20508;-88
2023/09/19 12:37:12;;;;;;;1.63;1.30;;;26.20;87.20;;;;;;6156767;23;20402;-88
2023/09/19 12:39:41;;;;;;;1.40;1.10;;;26.20;86.40;;;;;;6156920;23;20770;-88
2023/09/19 12:42:13;;;;;;;2.00;1.13;;;26.20;86.40;;;;;;6157153;23;20787;-88
2023/09/19 12:44:43;;;;;;;1.67;1.20;;;26.20;86.40;;;;;;6157036;23;20430;-88
2023/09/19 12:47:15;;;;;;;1.40;1.10;;;26.30;86.40;;;;;;6157019;23;20432;-88
2023/09/19 12:50:16;;;;;;;2.07;1.10;;;26.30;86.40;;;;;;6157080;23;20716;-88
2023/09/19 12:52:47;;;;;;;1.20;0.90;;;26.30;86.20;;;;;;6156556;23;20796;-88
2023/09/19 12:55:28;;;;;;;1.80;0.97;;;26.30;86.30;;;;;;6157003;23;20415;-88
2023/09/19 12:58:09;;;;;;;1.90;1.10;;;26.30;86.30;;;;;;6156465;23;20475;-88
2023/09/19 13:00:36;;;;;;;1.60;1.20;;;26.30;86.30;;;;;;6156948;23;20392;-87
2023/09/19 13:03:18;;;;;;;1.20;1.00;;;26.30;86.40;;;;;;6156943;23;20486;-88
2023/09/19 13:05:53;;;;;;;2.50;1.37;;;26.40;86.40;;;;;;6156345;23;20430;-88
2023/09/19 13:08:22;;;;;;;1.60;1.17;;;26.40;86.40;;;;;;6156859;23;20439;-88